Terminal Aerodrome Forecast
Issued by NWS

Home | Current Version | Previous Version | Text Only | Print | Product List | Glossary On
Versions: 1 2 3 4 5 6 7 8 9 10 11 12 13 14 15 16 17 18 19 20 21 22 23
044
FTUS44 KEWX 202342
TAFSSF
TAF
KSSF 202342Z 2100/2124 18007KT P6SM SCT250
     FM211300 21005KT P6SM SCT015 BKN200
     FM211600 23008KT P6SM SCT060 BKN200=

USA.gov is the U.S. government's official web portal to all federal, state and local government web resources and services.